West Melbourne, Florida
Current Conditions -  °F | °C
As of 2:53 AM on Thursday 27 Nov 2014 (Local Time) from KMLB Reporting Station
Clear Clear  
Wind Chill: 44°   Ceiling: Unl
Heat Index: 48°   Visibility: 10mi
Dew Point: 47°   Wind: 8mph
Humidity: 96%   Direction: 300°WNW
Pressure: 30.22"   Gusts: NA
Location:  28.0786°N, 80.6027°W
Report Text: KMLB 270753Z AUTO 30007KT 10SM CLR 09/08 A3022 RMK AO2 SLP232 T00890083
Loading
Personal Weather Stations






























Interactive Weather Map New forecast layout! Learn more

10-Day Weather Forecast

Advertisements
Track Severe Weather on mobile